Buena Vista, Wisconsin
Current Conditions -  °F | °C
As of 10:55 PM on Saturday 22 Nov 2014 (Local Time) from KSTE Reporting Station
Haze Haze  
Wind Chill: 37°   Ceiling: 300
Heat Index: 37°   Visibility: 1mi
Dew Point: 37°   Wind: 3mph
Humidity: 100%   Direction: 140°SE
Pressure: 29.69"   Gusts: NA
Location:  44.4117°N, 89.5378°W
Report Text: KSTE 230455Z AUTO 14003KT 1SM BR OVC003 03/03 A2969 RMK AO2 T00270027
Loading
Personal Weather Stations






























Interactive Weather Map New forecast layout! Learn more

10-Day Weather Forecast

Advertisements
Track Severe Weather on mobile